sensor_id;sensor_type;location;lat;lon;timestamp;P1;durP1;ratioP1;P2;durP2;ratioP2
10643;SDS011;5370;50.132;8.626;2022-12-19T00:00:30;41.27;;;23.77;;
10643;SDS011;5370;50.132;8.626;2022-12-19T00:02:56;42.23;;;24.23;;
10643;SDS011;5370;50.132;8.626;2022-12-19T00:05:21;45.97;;;24.43;;
10643;SDS011;5370;50.132;8.626;2022-12-19T00:07:47;40.80;;;24.37;;
10643;SDS011;5370;50.132;8.626;2022-12-19T00:10:13;39.93;;;21.30;;
10643;SDS011;5370;50.132;8.626;2022-12-19T00:12:38;43.13;;;24.27;;
10643;SDS011;5370;50.132;8.626;2022-12-19T00:15:04;41.07;;;23.93;;
10643;SDS011;5370;50.132;8.626;2022-12-19T00:17:30;38.43;;;22.97;;
10643;SDS011;5370;50.132;8.626;2022-12-19T00:19:57;42.53;;;23.80;;
10643;SDS011;5370;50.132;8.626;2022-12-19T00:22:22;40.43;;;23.83;;
10643;SDS011;5370;50.132;8.626;2022-12-19T00:24:49;44.13;;;24.67;;
10643;SDS011;5370;50.132;8.626;2022-12-19T00:27:14;46.77;;;24.40;;
10643;SDS011;5370;50.132;8.626;2022-12-19T00:29:40;42.70;;;24.20;;
10643;SDS011;5370;50.132;8.626;2022-12-19T00:32:05;40.10;;;23.57;;
10643;SDS011;5370;50.132;8.626;2022-12-19T00:34:31;42.50;;;24.20;;
10643;SDS011;5370;50.132;8.626;2022-12-19T00:36:57;39.00;;;22.77;;
10643;SDS011;5370;50.132;8.626;2022-12-19T00:39:22;39.83;;;22.97;;
10643;SDS011;5370;50.132;8.626;2022-12-19T00:41:48;40.67;;;23.57;;
10643;SDS011;5370;50.132;8.626;2022-12-19T00:44:13;43.10;;;24.80;;
10643;SDS011;5370;50.132;8.626;2022-12-19T00:46:39;42.57;;;23.83;;
10643;SDS011;5370;50.132;8.626;2022-12-19T00:49:05;39.80;;;24.43;;
10643;SDS011;5370;50.132;8.626;2022-12-19T00:51:32;42.93;;;23.47;;
10643;SDS011;5370;50.132;8.626;2022-12-19T00:54:00;38.60;;;23.53;;
10643;SDS011;5370;50.132;8.626;2022-12-19T00:56:27;43.50;;;25.70;;
10643;SDS011;5370;50.132;8.626;2022-12-19T00:58:55;44.43;;;24.67;;
10643;SDS011;5370;50.132;8.626;2022-12-19T01:01:22;41.90;;;24.30;;
10643;SDS011;5370;50.132;8.626;2022-12-19T01:03:50;42.93;;;23.90;;
10643;SDS011;5370;50.132;8.626;2022-12-19T01:06:16;43.23;;;23.50;;
10643;SDS011;5370;50.132;8.626;2022-12-19T01:08:42;46.60;;;24.90;;
10643;SDS011;5370;50.132;8.626;2022-12-19T01:11:08;42.37;;;24.70;;
10643;SDS011;5370;50.132;8.626;2022-12-19T01:13:34;42.13;;;24.13;;
10643;SDS011;5370;50.132;8.626;2022-12-19T01:16:05;44.23;;;25.10;;
10643;SDS011;5370;50.132;8.626;2022-12-19T01:18:35;42.13;;;24.93;;
10643;SDS011;5370;50.132;8.626;2022-12-19T01:21:03;43.23;;;25.67;;
10643;SDS011;5370;50.132;8.626;2022-12-19T01:23:33;39.33;;;24.23;;
10643;SDS011;5370;50.132;8.626;2022-12-19T01:25:59;42.10;;;22.77;;
10643;SDS011;5370;50.132;8.626;2022-12-19T01:28:25;43.93;;;25.33;;
10643;SDS011;5370;50.132;8.626;2022-12-19T01:30:50;42.93;;;24.20;;
10643;SDS011;5370;50.132;8.626;2022-12-19T01:33:17;41.83;;;23.73;;
10643;SDS011;5370;50.132;8.626;2022-12-19T01:35:45;41.83;;;24.83;;
10643;SDS011;5370;50.132;8.626;2022-12-19T01:38:15;41.53;;;24.27;;
10643;SDS011;5370;50.132;8.626;2022-12-19T01:40:50;45.07;;;25.67;;
10643;SDS011;5370;50.132;8.626;2022-12-19T01:43:20;43.80;;;24.03;;
10643;SDS011;5370;50.132;8.626;2022-12-19T01:45:48;45.73;;;24.47;;
10643;SDS011;5370;50.132;8.626;2022-12-19T01:48:43;47.27;;;25.93;;
10643;SDS011;5370;50.132;8.626;2022-12-19T01:51:13;41.33;;;25.17;;
10643;SDS011;5370;50.132;8.626;2022-12-19T01:53:47;44.10;;;25.03;;
10643;SDS011;5370;50.132;8.626;2022-12-19T01:56:15;40.80;;;23.53;;
10643;SDS011;5370;50.132;8.626;2022-12-19T01:58:44;48.53;;;25.87;;
10643;SDS011;5370;50.132;8.626;2022-12-19T02:01:12;49.33;;;27.10;;
10643;SDS011;5370;50.132;8.626;2022-12-19T02:03:39;42.50;;;23.90;;
10643;SDS011;5370;50.132;8.626;2022-12-19T02:06:05;46.67;;;26.00;;
10643;SDS011;5370;50.132;8.626;2022-12-19T02:08:32;44.20;;;25.37;;
10643;SDS011;5370;50.132;8.626;2022-12-19T02:10:59;46.83;;;24.70;;
10643;SDS011;5370;50.132;8.626;2022-12-19T02:13:24;45.73;;;25.30;;
10643;SDS011;5370;50.132;8.626;2022-12-19T02:21:12;44.07;;;25.57;;
10643;SDS011;5370;50.132;8.626;2022-12-19T02:26:20;40.00;;;23.70;;
10643;SDS011;5370;50.132;8.626;2022-12-19T02:34:57;46.77;;;26.53;;
10643;SDS011;5370;50.132;8.626;2022-12-19T02:37:41;47.57;;;26.77;;
10643;SDS011;5370;50.132;8.626;2022-12-19T02:40:24;43.97;;;25.03;;
10643;SDS011;5370;50.132;8.626;2022-12-19T02:42:56;39.63;;;24.23;;
10643;SDS011;5370;50.132;8.626;2022-12-19T02:45:23;47.70;;;25.83;;
10643;SDS011;5370;50.132;8.626;2022-12-19T02:47:51;42.00;;;24.70;;
10643;SDS011;5370;50.132;8.626;2022-12-19T02:50:18;39.47;;;23.63;;
10643;SDS011;5370;50.132;8.626;2022-12-19T02:52:44;44.13;;;24.10;;
10643;SDS011;5370;50.132;8.626;2022-12-19T02:55:13;42.83;;;24.67;;
10643;SDS011;5370;50.132;8.626;2022-12-19T03:00:23;43.93;;;25.13;;
10643;SDS011;5370;50.132;8.626;2022-12-19T03:05:23;42.47;;;25.07;;
10643;SDS011;5370;50.132;8.626;2022-12-19T03:10:38;43.40;;;25.80;;
10643;SDS011;5370;50.132;8.626;2022-12-19T03:13:20;45.07;;;25.60;;
10643;SDS011;5370;50.132;8.626;2022-12-19T03:15:51;45.07;;;25.90;;
10643;SDS011;5370;50.132;8.626;2022-12-19T03:18:17;40.00;;;24.13;;
10643;SDS011;5370;50.132;8.626;2022-12-19T03:20:48;41.87;;;24.27;;
10643;SDS011;5370;50.132;8.626;2022-12-19T03:23:14;41.90;;;23.90;;
10643;SDS011;5370;50.132;8.626;2022-12-19T03:25:42;43.67;;;24.70;;
10643;SDS011;5370;50.132;8.626;2022-12-19T03:28:12;44.30;;;25.90;;
10643;SDS011;5370;50.132;8.626;2022-12-19T03:30:45;50.57;;;26.33;;
10643;SDS011;5370;50.132;8.626;2022-12-19T03:33:11;50.30;;;27.97;;
10643;SDS011;5370;50.132;8.626;2022-12-19T03:35:40;45.87;;;25.90;;
10643;SDS011;5370;50.132;8.626;2022-12-19T03:38:08;47.73;;;26.23;;
10643;SDS011;5370;50.132;8.626;2022-12-19T03:40:35;44.73;;;25.10;;
10643;SDS011;5370;50.132;8.626;2022-12-19T03:43:05;41.03;;;23.33;;
10643;SDS011;5370;50.132;8.626;2022-12-19T03:48:23;43.57;;;25.70;;
10643;SDS011;5370;50.132;8.626;2022-12-19T03:54:17;44.17;;;26.50;;
10643;SDS011;5370;50.132;8.626;2022-12-19T03:56:48;44.00;;;25.53;;
10643;SDS011;5370;50.132;8.626;2022-12-19T04:02:06;43.83;;;24.07;;
10643;SDS011;5370;50.132;8.626;2022-12-19T04:04:33;42.50;;;24.00;;
10643;SDS011;5370;50.132;8.626;2022-12-19T04:07:02;44.77;;;25.97;;
10643;SDS011;5370;50.132;8.626;2022-12-19T04:09:29;44.70;;;25.33;;
10643;SDS011;5370;50.132;8.626;2022-12-19T04:12:04;46.30;;;24.93;;
10643;SDS011;5370;50.132;8.626;2022-12-19T04:14:33;46.60;;;26.07;;
10643;SDS011;5370;50.132;8.626;2022-12-19T04:17:19;46.93;;;25.90;;
10643;SDS011;5370;50.132;8.626;2022-12-19T04:25:14;51.57;;;27.03;;
10643;SDS011;5370;50.132;8.626;2022-12-19T04:27:51;61.90;;;28.70;;
10643;SDS011;5370;50.132;8.626;2022-12-19T04:30:21;41.30;;;24.23;;
10643;SDS011;5370;50.132;8.626;2022-12-19T04:32:47;44.73;;;26.03;;
10643;SDS011;5370;50.132;8.626;2022-12-19T04:35:14;43.53;;;25.37;;
10643;SDS011;5370;50.132;8.626;2022-12-19T04:37:40;47.47;;;25.30;;
10643;SDS011;5370;50.132;8.626;2022-12-19T04:40:06;40.67;;;25.07;;
10643;SDS011;5370;50.132;8.626;2022-12-19T04:42:32;43.47;;;25.17;;
10643;SDS011;5370;50.132;8.626;2022-12-19T04:44:58;44.17;;;24.63;;
10643;SDS011;5370;50.132;8.626;2022-12-19T04:47:23;41.60;;;24.93;;
10643;SDS011;5370;50.132;8.626;2022-12-19T04:49:49;45.67;;;24.83;;
10643;SDS011;5370;50.132;8.626;2022-12-19T04:52:15;45.87;;;24.93;;
10643;SDS011;5370;50.132;8.626;2022-12-19T04:54:40;44.43;;;25.70;;
10643;SDS011;5370;50.132;8.626;2022-12-19T04:57:06;44.13;;;25.20;;
10643;SDS011;5370;50.132;8.626;2022-12-19T04:59:32;44.90;;;25.33;;
10643;SDS011;5370;50.132;8.626;2022-12-19T05:01:57;47.73;;;26.47;;
10643;SDS011;5370;50.132;8.626;2022-12-19T05:04:23;51.40;;;26.67;;
10643;SDS011;5370;50.132;8.626;2022-12-19T05:06:49;45.87;;;26.07;;
10643;SDS011;5370;50.132;8.626;2022-12-19T05:09:14;45.20;;;24.73;;
10643;SDS011;5370;50.132;8.626;2022-12-19T05:11:40;50.53;;;25.83;;
10643;SDS011;5370;50.132;8.626;2022-12-19T05:14:05;45.17;;;26.17;;
10643;SDS011;5370;50.132;8.626;2022-12-19T05:16:31;43.43;;;25.13;;
10643;SDS011;5370;50.132;8.626;2022-12-19T05:18:57;45.27;;;25.57;;
10643;SDS011;5370;50.132;8.626;2022-12-19T05:21:22;42.47;;;25.10;;
10643;SDS011;5370;50.132;8.626;2022-12-19T05:23:49;43.87;;;25.43;;
10643;SDS011;5370;50.132;8.626;2022-12-19T05:26:15;46.63;;;25.93;;
10643;SDS011;5370;50.132;8.626;2022-12-19T05:28:41;46.00;;;25.27;;
10643;SDS011;5370;50.132;8.626;2022-12-19T05:31:07;47.30;;;25.90;;
10643;SDS011;5370;50.132;8.626;2022-12-19T05:33:38;46.63;;;26.30;;
10643;SDS011;5370;50.132;8.626;2022-12-19T05:36:05;46.00;;;25.63;;
10643;SDS011;5370;50.132;8.626;2022-12-19T05:38:32;43.77;;;25.13;;
10643;SDS011;5370;50.132;8.626;2022-12-19T05:40:58;43.73;;;25.67;;
10643;SDS011;5370;50.132;8.626;2022-12-19T05:43:24;46.50;;;25.23;;
10643;SDS011;5370;50.132;8.626;2022-12-19T05:45:49;48.17;;;24.87;;
10643;SDS011;5370;50.132;8.626;2022-12-19T05:48:15;44.93;;;25.80;;
10643;SDS011;5370;50.132;8.626;2022-12-19T05:50:45;44.13;;;25.80;;
10643;SDS011;5370;50.132;8.626;2022-12-19T05:53:12;49.87;;;27.03;;
10643;SDS011;5370;50.132;8.626;2022-12-19T05:55:38;47.03;;;26.53;;
10643;SDS011;5370;50.132;8.626;2022-12-19T05:58:03;45.97;;;25.50;;
10643;SDS011;5370;50.132;8.626;2022-12-19T06:00:29;47.30;;;26.70;;
10643;SDS011;5370;50.132;8.626;2022-12-19T06:02:54;43.37;;;25.30;;
10643;SDS011;5370;50.132;8.626;2022-12-19T06:05:20;44.33;;;25.73;;
10643;SDS011;5370;50.132;8.626;2022-12-19T06:07:45;48.10;;;26.37;;
10643;SDS011;5370;50.132;8.626;2022-12-19T06:10:11;43.60;;;25.50;;
10643;SDS011;5370;50.132;8.626;2022-12-19T06:12:37;46.87;;;25.47;;
10643;SDS011;5370;50.132;8.626;2022-12-19T06:15:03;47.03;;;26.60;;
10643;SDS011;5370;50.132;8.626;2022-12-19T06:17:28;56.07;;;28.67;;
10643;SDS011;5370;50.132;8.626;2022-12-19T06:19:54;46.17;;;25.97;;
10643;SDS011;5370;50.132;8.626;2022-12-19T06:22:19;43.43;;;25.40;;
10643;SDS011;5370;50.132;8.626;2022-12-19T06:24:45;49.03;;;26.60;;
10643;SDS011;5370;50.132;8.626;2022-12-19T06:27:10;46.47;;;26.60;;
10643;SDS011;5370;50.132;8.626;2022-12-19T06:29:36;48.57;;;25.50;;
10643;SDS011;5370;50.132;8.626;2022-12-19T06:32:01;46.30;;;25.63;;
10643;SDS011;5370;50.132;8.626;2022-12-19T06:34:27;46.70;;;25.63;;
10643;SDS011;5370;50.132;8.626;2022-12-19T06:36:53;49.83;;;26.20;;
10643;SDS011;5370;50.132;8.626;2022-12-19T06:39:18;50.57;;;26.77;;
10643;SDS011;5370;50.132;8.626;2022-12-19T06:41:44;45.90;;;26.13;;
10643;SDS011;5370;50.132;8.626;2022-12-19T06:44:30;52.73;;;26.27;;
10643;SDS011;5370;50.132;8.626;2022-12-19T06:46:55;49.00;;;26.67;;
10643;SDS011;5370;50.132;8.626;2022-12-19T06:49:21;46.93;;;25.90;;
10643;SDS011;5370;50.132;8.626;2022-12-19T06:51:46;47.03;;;26.43;;
10643;SDS011;5370;50.132;8.626;2022-12-19T06:54:12;47.87;;;25.63;;
10643;SDS011;5370;50.132;8.626;2022-12-19T06:56:39;43.93;;;25.90;;
10643;SDS011;5370;50.132;8.626;2022-12-19T06:59:06;51.27;;;28.13;;
10643;SDS011;5370;50.132;8.626;2022-12-19T07:01:55;47.07;;;26.50;;
10643;SDS011;5370;50.132;8.626;2022-12-19T07:04:33;43.33;;;25.10;;
10643;SDS011;5370;50.132;8.626;2022-12-19T07:07:02;47.20;;;25.03;;
10643;SDS011;5370;50.132;8.626;2022-12-19T07:09:28;47.60;;;26.60;;
10643;SDS011;5370;50.132;8.626;2022-12-19T07:11:55;52.40;;;28.80;;
10643;SDS011;5370;50.132;8.626;2022-12-19T07:14:21;50.33;;;27.40;;
10643;SDS011;5370;50.132;8.626;2022-12-19T07:16:46;46.17;;;25.73;;
10643;SDS011;5370;50.132;8.626;2022-12-19T07:19:14;50.73;;;27.47;;
10643;SDS011;5370;50.132;8.626;2022-12-19T07:21:40;48.40;;;26.97;;
10643;SDS011;5370;50.132;8.626;2022-12-19T07:24:06;48.27;;;27.00;;
10643;SDS011;5370;50.132;8.626;2022-12-19T07:26:32;53.70;;;25.73;;
10643;SDS011;5370;50.132;8.626;2022-12-19T07:28:58;54.20;;;26.80;;
10643;SDS011;5370;50.132;8.626;2022-12-19T07:31:24;50.53;;;26.10;;
10643;SDS011;5370;50.132;8.626;2022-12-19T07:33:50;51.17;;;26.27;;
10643;SDS011;5370;50.132;8.626;2022-12-19T07:36:15;44.80;;;25.60;;
10643;SDS011;5370;50.132;8.626;2022-12-19T07:38:41;47.90;;;26.53;;
10643;SDS011;5370;50.132;8.626;2022-12-19T07:41:07;46.33;;;26.07;;
10643;SDS011;5370;50.132;8.626;2022-12-19T07:43:32;50.47;;;26.50;;
10643;SDS011;5370;50.132;8.626;2022-12-19T07:45:58;46.47;;;26.20;;
10643;SDS011;5370;50.132;8.626;2022-12-19T07:48:23;48.70;;;27.17;;
10643;SDS011;5370;50.132;8.626;2022-12-19T07:50:55;46.50;;;24.60;;
10643;SDS011;5370;50.132;8.626;2022-12-19T07:53:21;46.80;;;26.23;;
10643;SDS011;5370;50.132;8.626;2022-12-19T07:55:50;47.13;;;26.10;;
10643;SDS011;5370;50.132;8.626;2022-12-19T07:58:16;44.87;;;25.63;;
10643;SDS011;5370;50.132;8.626;2022-12-19T08:00:41;45.13;;;26.23;;
10643;SDS011;5370;50.132;8.626;2022-12-19T08:03:07;45.73;;;25.97;;
10643;SDS011;5370;50.132;8.626;2022-12-19T08:05:33;48.77;;;25.73;;
10643;SDS011;5370;50.132;8.626;2022-12-19T08:07:58;53.67;;;26.97;;
10643;SDS011;5370;50.132;8.626;2022-12-19T08:10:24;41.83;;;23.93;;
10643;SDS011;5370;50.132;8.626;2022-12-19T08:12:49;46.57;;;26.47;;
10643;SDS011;5370;50.132;8.626;2022-12-19T08:15:15;43.70;;;24.97;;
10643;SDS011;5370;50.132;8.626;2022-12-19T08:17:41;45.87;;;25.67;;
10643;SDS011;5370;50.132;8.626;2022-12-19T08:20:07;46.23;;;25.40;;
10643;SDS011;5370;50.132;8.626;2022-12-19T08:22:35;47.10;;;25.47;;
10643;SDS011;5370;50.132;8.626;2022-12-19T08:25:00;47.10;;;25.33;;
10643;SDS011;5370;50.132;8.626;2022-12-19T08:27:26;44.47;;;25.70;;
10643;SDS011;5370;50.132;8.626;2022-12-19T08:29:51;48.53;;;26.17;;
10643;SDS011;5370;50.132;8.626;2022-12-19T08:32:17;49.77;;;27.47;;
10643;SDS011;5370;50.132;8.626;2022-12-19T08:34:43;58.37;;;27.40;;
10643;SDS011;5370;50.132;8.626;2022-12-19T08:37:09;52.10;;;26.13;;
10643;SDS011;5370;50.132;8.626;2022-12-19T08:39:35;57.53;;;26.20;;
10643;SDS011;5370;50.132;8.626;2022-12-19T08:42:00;51.97;;;26.57;;
10643;SDS011;5370;50.132;8.626;2022-12-19T08:44:26;52.53;;;26.57;;
10643;SDS011;5370;50.132;8.626;2022-12-19T08:46:51;48.23;;;27.47;;
10643;SDS011;5370;50.132;8.626;2022-12-19T08:49:17;51.00;;;26.47;;
10643;SDS011;5370;50.132;8.626;2022-12-19T08:51:43;50.87;;;27.20;;
10643;SDS011;5370;50.132;8.626;2022-12-19T08:54:09;57.93;;;26.47;;
10643;SDS011;5370;50.132;8.626;2022-12-19T08:56:36;53.77;;;26.43;;
10643;SDS011;5370;50.132;8.626;2022-12-19T08:59:01;55.97;;;27.10;;
10643;SDS011;5370;50.132;8.626;2022-12-19T09:01:27;54.30;;;26.87;;
10643;SDS011;5370;50.132;8.626;2022-12-19T09:03:52;61.93;;;30.93;;
10643;SDS011;5370;50.132;8.626;2022-12-19T09:06:22;73.43;;;30.57;;
10643;SDS011;5370;50.132;8.626;2022-12-19T09:08:48;56.10;;;27.23;;
10643;SDS011;5370;50.132;8.626;2022-12-19T09:11:14;58.27;;;28.53;;
10643;SDS011;5370;50.132;8.626;2022-12-19T09:13:42;64.63;;;28.67;;
10643;SDS011;5370;50.132;8.626;2022-12-19T09:18:39;50.83;;;28.20;;
10643;SDS011;5370;50.132;8.626;2022-12-19T09:21:06;48.47;;;25.20;;
10643;SDS011;5370;50.132;8.626;2022-12-19T09:23:32;59.70;;;27.37;;
10643;SDS011;5370;50.132;8.626;2022-12-19T09:26:05;58.57;;;29.30;;
10643;SDS011;5370;50.132;8.626;2022-12-19T09:28:33;64.07;;;28.23;;
10643;SDS011;5370;50.132;8.626;2022-12-19T09:31:00;75.67;;;29.50;;
10643;SDS011;5370;50.132;8.626;2022-12-19T09:33:29;72.53;;;29.57;;
10643;SDS011;5370;50.132;8.626;2022-12-19T09:35:57;60.23;;;27.37;;
10643;SDS011;5370;50.132;8.626;2022-12-19T09:38:23;53.63;;;26.57;;
10643;SDS011;5370;50.132;8.626;2022-12-19T09:49:13;45.20;;;25.60;;
10643;SDS011;5370;50.132;8.626;2022-12-19T09:51:56;50.30;;;26.40;;
10643;SDS011;5370;50.132;8.626;2022-12-19T09:54:37;60.30;;;27.70;;
10643;SDS011;5370;50.132;8.626;2022-12-19T09:57:15;51.20;;;26.63;;
10643;SDS011;5370;50.132;8.626;2022-12-19T09:59:48;54.37;;;26.07;;
10643;SDS011;5370;50.132;8.626;2022-12-19T10:02:28;53.07;;;25.63;;
10643;SDS011;5370;50.132;8.626;2022-12-19T10:05:24;48.07;;;25.20;;
10643;SDS011;5370;50.132;8.626;2022-12-19T10:08:24;49.50;;;26.83;;
10643;SDS011;5370;50.132;8.626;2022-12-19T10:11:04;53.67;;;28.37;;
10643;SDS011;5370;50.132;8.626;2022-12-19T10:19:40;53.30;;;27.33;;
10643;SDS011;5370;50.132;8.626;2022-12-19T10:22:23;57.20;;;28.23;;
10643;SDS011;5370;50.132;8.626;2022-12-19T10:25:04;60.67;;;31.10;;
10643;SDS011;5370;50.132;8.626;2022-12-19T10:35:29;56.20;;;27.33;;
10643;SDS011;5370;50.132;8.626;2022-12-19T10:43:05;69.03;;;31.17;;
10643;SDS011;5370;50.132;8.626;2022-12-19T10:45:56;62.37;;;28.47;;
10643;SDS011;5370;50.132;8.626;2022-12-19T10:48:26;69.77;;;29.17;;
10643;SDS011;5370;50.132;8.626;2022-12-19T10:50:52;65.40;;;30.67;;
10643;SDS011;5370;50.132;8.626;2022-12-19T10:53:24;57.53;;;27.03;;
10643;SDS011;5370;50.132;8.626;2022-12-19T10:55:52;67.80;;;30.70;;
10643;SDS011;5370;50.132;8.626;2022-12-19T11:03:47;65.43;;;30.27;;
10643;SDS011;5370;50.132;8.626;2022-12-19T11:11:45;60.07;;;29.73;;
10643;SDS011;5370;50.132;8.626;2022-12-19T11:14:22;58.53;;;28.77;;
10643;SDS011;5370;50.132;8.626;2022-12-19T11:16:49;63.33;;;28.97;;
10643;SDS011;5370;50.132;8.626;2022-12-19T11:19:19;66.47;;;31.10;;
10643;SDS011;5370;50.132;8.626;2022-12-19T11:21:51;64.53;;;30.00;;
10643;SDS011;5370;50.132;8.626;2022-12-19T11:24:22;58.03;;;28.77;;
10643;SDS011;5370;50.132;8.626;2022-12-19T11:26:53;59.77;;;28.53;;
10643;SDS011;5370;50.132;8.626;2022-12-19T11:29:22;61.83;;;30.10;;
10643;SDS011;5370;50.132;8.626;2022-12-19T11:32:00;51.50;;;29.90;;
10643;SDS011;5370;50.132;8.626;2022-12-19T11:34:27;59.07;;;28.60;;
10643;SDS011;5370;50.132;8.626;2022-12-19T11:39:44;57.33;;;32.73;;
10643;SDS011;5370;50.132;8.626;2022-12-19T11:44:52;71.90;;;32.53;;
10643;SDS011;5370;50.132;8.626;2022-12-19T11:47:30;63.67;;;32.73;;
10643;SDS011;5370;50.132;8.626;2022-12-19T11:50:12;61.07;;;30.97;;
10643;SDS011;5370;50.132;8.626;2022-12-19T11:52:46;57.53;;;30.17;;
10643;SDS011;5370;50.132;8.626;2022-12-19T11:55:21;58.53;;;29.13;;
10643;SDS011;5370;50.132;8.626;2022-12-19T11:57:50;59.07;;;29.47;;
10643;SDS011;5370;50.132;8.626;2022-12-19T12:00:18;56.10;;;29.43;;
10643;SDS011;5370;50.132;8.626;2022-12-19T12:16:43;72.77;;;30.37;;
10643;SDS011;5370;50.132;8.626;2022-12-19T12:33:30;57.03;;;29.93;;
10643;SDS011;5370;50.132;8.626;2022-12-19T12:36:09;53.77;;;30.33;;
10643;SDS011;5370;50.132;8.626;2022-12-19T12:44:29;59.17;;;30.63;;
10643;SDS011;5370;50.132;8.626;2022-12-19T12:47:04;53.07;;;30.77;;
10643;SDS011;5370;50.132;8.626;2022-12-19T12:49:49;60.30;;;29.53;;
10643;SDS011;5370;50.132;8.626;2022-12-19T12:52:21;63.37;;;29.60;;
10643;SDS011;5370;50.132;8.626;2022-12-19T12:54:50;62.73;;;30.27;;
10643;SDS011;5370;50.132;8.626;2022-12-19T12:57:19;57.47;;;28.90;;
10643;SDS011;5370;50.132;8.626;2022-12-19T13:00:12;63.00;;;30.70;;
10643;SDS011;5370;50.132;8.626;2022-12-19T13:02:43;50.17;;;29.60;;
10643;SDS011;5370;50.132;8.626;2022-12-19T13:05:50;55.57;;;30.87;;
10643;SDS011;5370;50.132;8.626;2022-12-19T13:08:24;58.00;;;29.27;;
10643;SDS011;5370;50.132;8.626;2022-12-19T13:10:55;58.23;;;29.40;;
10643;SDS011;5370;50.132;8.626;2022-12-19T13:19:14;60.17;;;29.90;;
10643;SDS011;5370;50.132;8.626;2022-12-19T13:24:28;56.03;;;28.77;;
10643;SDS011;5370;50.132;8.626;2022-12-19T13:27:30;49.93;;;27.07;;
10643;SDS011;5370;50.132;8.626;2022-12-19T13:32:25;50.27;;;27.07;;
10643;SDS011;5370;50.132;8.626;2022-12-19T13:34:57;53.50;;;28.73;;
10643;SDS011;5370;50.132;8.626;2022-12-19T13:37:27;53.10;;;28.00;;
10643;SDS011;5370;50.132;8.626;2022-12-19T13:42:22;53.27;;;27.67;;
10643;SDS011;5370;50.132;8.626;2022-12-19T13:45:12;50.53;;;27.80;;
10643;SDS011;5370;50.132;8.626;2022-12-19T13:47:45;51.23;;;27.33;;
10643;SDS011;5370;50.132;8.626;2022-12-19T13:50:18;48.23;;;27.70;;
10643;SDS011;5370;50.132;8.626;2022-12-19T13:52:50;51.03;;;28.10;;
10643;SDS011;5370;50.132;8.626;2022-12-19T13:55:17;65.03;;;30.53;;
10643;SDS011;5370;50.132;8.626;2022-12-19T13:57:45;59.10;;;29.53;;
10643;SDS011;5370;50.132;8.626;2022-12-19T14:00:15;49.93;;;27.67;;
10643;SDS011;5370;50.132;8.626;2022-12-19T14:02:51;55.17;;;28.93;;
10643;SDS011;5370;50.132;8.626;2022-12-19T14:05:19;58.07;;;27.70;;
10643;SDS011;5370;50.132;8.626;2022-12-19T14:07:48;69.60;;;29.43;;
10643;SDS011;5370;50.132;8.626;2022-12-19T14:10:15;61.53;;;29.77;;
10643;SDS011;5370;50.132;8.626;2022-12-19T14:12:43;55.23;;;28.73;;
10643;SDS011;5370;50.132;8.626;2022-12-19T14:15:34;51.07;;;28.90;;
10643;SDS011;5370;50.132;8.626;2022-12-19T14:18:07;55.87;;;29.57;;
10643;SDS011;5370;50.132;8.626;2022-12-19T14:20:44;61.07;;;29.30;;
10643;SDS011;5370;50.132;8.626;2022-12-19T14:23:11;67.87;;;29.77;;
10643;SDS011;5370;50.132;8.626;2022-12-19T14:25:38;70.87;;;31.07;;
10643;SDS011;5370;50.132;8.626;2022-12-19T14:28:05;75.93;;;32.60;;
10643;SDS011;5370;50.132;8.626;2022-12-19T14:30:34;61.90;;;30.90;;
10643;SDS011;5370;50.132;8.626;2022-12-19T14:33:10;60.40;;;31.83;;
10643;SDS011;5370;50.132;8.626;2022-12-19T14:35:47;63.63;;;30.03;;
10643;SDS011;5370;50.132;8.626;2022-12-19T14:38:20;56.10;;;30.77;;
10643;SDS011;5370;50.132;8.626;2022-12-19T14:40:48;58.97;;;30.67;;
10643;SDS011;5370;50.132;8.626;2022-12-19T14:43:15;67.47;;;30.63;;
10643;SDS011;5370;50.132;8.626;2022-12-19T14:48:48;57.70;;;29.70;;
10643;SDS011;5370;50.132;8.626;2022-12-19T14:56:49;61.17;;;30.67;;
10643;SDS011;5370;50.132;8.626;2022-12-19T15:04:47;60.60;;;31.97;;
10643;SDS011;5370;50.132;8.626;2022-12-19T15:07:25;60.83;;;29.70;;
10643;SDS011;5370;50.132;8.626;2022-12-19T15:10:00;61.97;;;32.63;;
10643;SDS011;5370;50.132;8.626;2022-12-19T15:20:45;64.37;;;31.00;;
10643;SDS011;5370;50.132;8.626;2022-12-19T15:23:11;59.57;;;30.87;;
10643;SDS011;5370;50.132;8.626;2022-12-19T15:25:37;67.63;;;33.53;;
10643;SDS011;5370;50.132;8.626;2022-12-19T15:28:13;68.20;;;34.23;;
10643;SDS011;5370;50.132;8.626;2022-12-19T15:30:42;65.47;;;34.30;;
10643;SDS011;5370;50.132;8.626;2022-12-19T15:33:15;70.23;;;34.77;;
10643;SDS011;5370;50.132;8.626;2022-12-19T15:35:41;62.90;;;33.03;;
10643;SDS011;5370;50.132;8.626;2022-12-19T15:38:06;69.10;;;35.17;;
10643;SDS011;5370;50.132;8.626;2022-12-19T15:40:32;69.50;;;35.57;;
10643;SDS011;5370;50.132;8.626;2022-12-19T15:42:58;64.10;;;34.30;;
10643;SDS011;5370;50.132;8.626;2022-12-19T15:45:24;74.70;;;36.07;;
10643;SDS011;5370;50.132;8.626;2022-12-19T15:47:50;64.17;;;35.63;;
10643;SDS011;5370;50.132;8.626;2022-12-19T15:50:26;75.20;;;38.73;;
10643;SDS011;5370;50.132;8.626;2022-12-19T15:52:56;73.00;;;36.43;;
10643;SDS011;5370;50.132;8.626;2022-12-19T15:55:24;65.53;;;36.03;;
10643;SDS011;5370;50.132;8.626;2022-12-19T15:57:59;74.33;;;38.10;;
10643;SDS011;5370;50.132;8.626;2022-12-19T16:00:31;81.37;;;37.73;;
10643;SDS011;5370;50.132;8.626;2022-12-19T16:03:00;82.10;;;39.13;;
10643;SDS011;5370;50.132;8.626;2022-12-19T16:05:25;83.23;;;39.10;;
10643;SDS011;5370;50.132;8.626;2022-12-19T16:07:53;86.17;;;38.53;;
10643;SDS011;5370;50.132;8.626;2022-12-19T16:10:19;75.70;;;38.17;;
10643;SDS011;5370;50.132;8.626;2022-12-19T16:12:47;81.77;;;41.03;;
10643;SDS011;5370;50.132;8.626;2022-12-19T16:17:47;76.17;;;39.53;;
10643;SDS011;5370;50.132;8.626;2022-12-19T16:20:21;73.00;;;37.90;;
10643;SDS011;5370;50.132;8.626;2022-12-19T16:22:48;82.60;;;38.20;;
10643;SDS011;5370;50.132;8.626;2022-12-19T16:25:14;76.37;;;38.23;;
10643;SDS011;5370;50.132;8.626;2022-12-19T16:27:40;79.83;;;37.73;;
10643;SDS011;5370;50.132;8.626;2022-12-19T16:30:14;83.10;;;38.50;;
10643;SDS011;5370;50.132;8.626;2022-12-19T16:32:42;75.83;;;37.93;;
10643;SDS011;5370;50.132;8.626;2022-12-19T16:35:12;69.03;;;36.07;;
10643;SDS011;5370;50.132;8.626;2022-12-19T16:37:42;91.10;;;37.80;;
10643;SDS011;5370;50.132;8.626;2022-12-19T16:42:41;73.37;;;36.93;;
10643;SDS011;5370;50.132;8.626;2022-12-19T16:45:17;80.50;;;37.33;;
10643;SDS011;5370;50.132;8.626;2022-12-19T16:47:50;76.57;;;36.93;;
10643;SDS011;5370;50.132;8.626;2022-12-19T16:50:18;77.60;;;36.20;;
10643;SDS011;5370;50.132;8.626;2022-12-19T16:52:46;77.57;;;36.30;;
10643;SDS011;5370;50.132;8.626;2022-12-19T16:55:12;85.80;;;39.47;;
10643;SDS011;5370;50.132;8.626;2022-12-19T16:57:39;82.67;;;39.70;;
10643;SDS011;5370;50.132;8.626;2022-12-19T17:00:06;74.07;;;34.77;;
10643;SDS011;5370;50.132;8.626;2022-12-19T17:05:13;87.37;;;40.37;;
10643;SDS011;5370;50.132;8.626;2022-12-19T17:07:45;78.80;;;40.60;;
10643;SDS011;5370;50.132;8.626;2022-12-19T17:10:10;78.17;;;39.60;;
10643;SDS011;5370;50.132;8.626;2022-12-19T17:12:37;74.53;;;38.77;;
10643;SDS011;5370;50.132;8.626;2022-12-19T17:15:04;81.03;;;37.50;;
10643;SDS011;5370;50.132;8.626;2022-12-19T17:17:36;93.47;;;42.00;;
10643;SDS011;5370;50.132;8.626;2022-12-19T17:20:02;76.90;;;38.97;;
10643;SDS011;5370;50.132;8.626;2022-12-19T17:22:27;84.03;;;39.97;;
10643;SDS011;5370;50.132;8.626;2022-12-19T17:24:53;75.53;;;39.30;;